Time;durP1;ratioP1;P1;durP2;ratioP2;P2;SDS_P1;SDS_P2;PMS_P1;PMS_P2;Temp;Humidity;BMP_temperature;BMP_pressure;BME280_temperature;BME280_humidity;BME280_pressure;Samples;Min_cycle;Max_cycle;Signal;HPM_P1;HPM_P2
2023/08/11 00:00:22;;;;;;;6.53;4.65;;;;;;;13.06;87.52;96431.84;2067152;28;20065;-60
2023/08/11 00:01:24;;;;;;;8.88;4.55;;;;;;;13.03;87.87;96426.81;2058143;28;20059;-59
2023/08/11 00:02:25;;;;;;;5.88;4.57;;;;;;;12.98;87.82;96432.22;2058534;28;20058;-59
2023/08/11 00:03:26;;;;;;;10.07;4.70;;;;;;;12.96;88.29;96436.72;2066445;28;20050;-59
2023/08/11 00:04:28;;;;;;;8.05;4.70;;;;;;;12.94;88.52;96424.66;2067450;28;20065;-59
2023/08/11 00:05:30;;;;;;;7.38;5.03;;;;;;;12.92;88.03;96427.34;2066732;28;20515;-59
2023/08/11 00:06:31;;;;;;;6.35;5.00;;;;;;;12.96;88.18;96434.09;2067121;28;20487;-59
2023/08/11 00:07:32;;;;;;;7.55;5.10;;;;;;;12.99;88.62;96425.25;2066339;28;20054;-59
2023/08/11 00:08:36;;;;;;;6.80;4.72;;;;;;;13.00;88.03;96433.00;2066670;28;20094;-59
2023/08/11 00:09:37;;;;;;;7.72;4.90;;;;;;;13.00;87.83;96432.16;2066387;28;20054;-59
2023/08/11 00:10:38;;;;;;;6.53;5.00;;;;;;;13.00;87.55;96435.63;2066433;28;20058;-59
2023/08/11 00:11:41;;;;;;;6.70;4.82;;;;;;;13.01;87.94;96432.06;2066628;28;20058;-59
2023/08/11 00:12:42;;;;;;;7.03;4.95;;;;;;;13.00;87.51;96432.16;2066388;28;20065;-59
2023/08/11 00:13:43;;;;;;;8.63;5.38;;;;;;;12.96;87.75;96434.09;2067121;28;20053;-59
2023/08/11 00:14:44;;;;;;;7.40;4.88;;;;;;;12.93;88.39;96431.63;2066972;28;20490;-59
2023/08/11 00:15:45;;;;;;;7.28;4.63;;;;;;;12.91;88.51;96430.88;2066916;28;20063;-59
2023/08/11 00:16:46;;;;;;;8.25;5.22;;;;;;;12.83;88.48;96419.97;2067213;28;20085;-59
2023/08/11 00:17:47;;;;;;;7.57;4.70;;;;;;;12.82;89.56;96433.91;2066901;28;20479;-59
2023/08/11 00:18:48;;;;;;;7.30;5.00;;;;;;;12.79;89.90;96434.06;2066552;28;20062;-59
2023/08/11 00:19:49;;;;;;;7.38;5.65;;;;;;;12.77;89.45;96430.69;2067213;28;20057;-59
2023/08/11 00:20:51;;;;;;;6.63;4.90;;;;;;;12.75;89.54;96437.72;2066647;28;20127;-59
2023/08/11 00:21:52;;;;;;;6.57;4.97;;;;;;;12.71;89.81;96429.22;2066900;28;20054;-58
2023/08/11 00:22:53;;;;;;;7.10;5.07;;;;;;;12.66;nan;96427.78;2066395;28;20062;-59
2023/08/11 00:23:54;;;;;;;8.38;5.32;;;;;;;12.63;90.62;96430.53;2066410;28;20050;-59
2023/08/11 00:24:55;;;;;;;7.68;4.93;;;;;;;12.67;90.12;96429.44;2066547;28;20054;-58
2023/08/11 00:25:56;;;;;;;7.55;5.20;;;;;;;12.67;90.26;96434.66;2066923;28;20069;-59
2023/08/11 00:26:57;;;;;;;8.25;4.72;;;;;;;12.66;89.61;96435.59;2066956;28;20057;-59
2023/08/11 00:27:59;;;;;;;6.55;4.72;;;;;;;12.66;89.50;96432.97;2066945;28;20061;-59
2023/08/11 00:29:00;;;;;;;6.50;5.13;;;;;;;12.65;89.94;96426.09;2066977;28;20054;-59
2023/08/11 00:30:01;;;;;;;7.43;5.32;;;;;;;12.63;89.48;96428.75;2066723;28;20053;-59
2023/08/11 00:31:04;;;;;;;8.80;5.50;;;;;;;12.63;89.87;96433.97;2066911;28;20054;-59
2023/08/11 00:32:06;;;;;;;8.35;5.15;;;;;;;12.75;89.52;96436.00;2049604;29;20051;-59
2023/08/11 00:33:07;;;;;;;8.80;5.30;;;;;;;12.77;89.71;96435.91;2049900;29;20051;-59
2023/08/11 00:34:08;;;;;;;7.70;4.57;;;;;;;12.75;89.48;96445.56;2065632;28;20046;-59
2023/08/11 00:35:09;;;;;;;8.57;5.43;;;;;;;12.71;90.33;96441.41;2066555;28;20445;-59
2023/08/11 00:36:10;;;;;;;6.57;5.35;;;;;;;12.65;90.44;96436.50;2066760;28;20054;-59
2023/08/11 00:37:11;;;;;;;7.10;5.05;;;;;;;12.62;90.39;96436.66;2066158;28;20050;-59
2023/08/11 00:38:13;;;;;;;6.78;4.95;;;;;;;12.62;91.20;96444.50;2066750;28;20058;-58
2023/08/11 00:39:15;;;;;;;7.32;5.28;;;;;;;12.58;91.26;96442.00;2066444;28;20058;-59
2023/08/11 00:40:16;;;;;;;7.80;5.30;;;;;;;12.57;91.62;96432.50;2058272;28;20051;-58
2023/08/11 00:41:19;;;;;;;8.73;5.47;;;;;;;12.56;91.51;96433.44;2058319;28;20047;-59
2023/08/11 00:42:20;;;;;;;8.55;5.20;;;;;;;12.52;91.58;96437.09;2066747;28;20415;-59
2023/08/11 00:43:21;;;;;;;7.57;4.85;;;;;;;12.53;91.95;96435.31;2066851;28;20119;-58
2023/08/11 00:44:23;;;;;;;7.13;5.35;;;;;;;12.53;91.42;96438.78;2057968;28;20066;-58
2023/08/11 00:45:24;;;;;;;6.90;5.10;;;;;;;12.53;91.95;96436.16;2058153;28;20062;-59
2023/08/11 00:46:25;;;;;;;9.52;5.60;;;;;;;12.46;91.39;96439.16;2058065;28;20502;-59
2023/08/11 00:47:26;;;;;;;6.93;5.55;;;;;;;12.38;91.29;96429.09;2057228;28;20065;-59
2023/08/11 00:48:27;;;;;;;8.85;5.18;;;;;;;12.40;91.46;96440.28;2050183;28;20055;-59
2023/08/11 00:49:28;;;;;;;8.00;5.70;;;;;;;12.38;91.57;96431.72;2057786;28;20046;-58
2023/08/11 00:50:30;;;;;;;8.18;5.68;;;;;;;12.38;91.78;96441.28;2066327;28;20485;-59
2023/08/11 00:51:31;;;;;;;10.95;5.65;;;;;;;12.38;92.37;96438.69;2065638;28;20055;-59
2023/08/11 00:52:32;;;;;;;8.10;5.30;;;;;;;12.39;91.99;96438.59;2058345;28;20055;-58
2023/08/11 00:53:33;;;;;;;9.68;5.22;;;;;;;12.40;91.95;96439.44;2058077;28;20054;-58
2023/08/11 00:54:34;;;;;;;7.03;5.20;;;;;;;12.37;92.66;96440.41;2065422;28;20054;-59
2023/08/11 00:55:35;;;;;;;7.68;5.68;;;;;;;12.33;92.48;96436.28;2066121;28;20062;-59
2023/08/11 00:56:37;;;;;;;6.57;5.30;;;;;;;12.32;92.71;96442.41;2065837;28;20062;-58
2023/08/11 00:57:38;;;;;;;7.97;5.70;;;;;;;12.31;92.62;96444.16;2058121;28;20089;-59
2023/08/11 00:58:39;;;;;;;7.88;5.22;;;;;;;12.31;92.74;96441.56;2050226;28;20373;-59
2023/08/11 00:59:40;;;;;;;7.30;5.45;;;;;;;12.34;91.80;96444.00;2050078;28;20062;-58
2023/08/11 01:00:42;;;;;;;9.02;5.70;;;;;;;12.35;91.14;96434.47;2049714;28;20056;-58
2023/08/11 01:01:43;;;;;;;9.38;5.35;;;;;;;12.40;91.47;96440.28;2049579;28;20055;-58
2023/08/11 01:02:44;;;;;;;7.15;5.05;;;;;;;12.39;91.11;96441.19;2048964;28;20055;-59
2023/08/11 01:03:47;;;;;;;7.95;5.40;;;;;;;12.40;90.77;96442.03;2057662;28;20055;-59
2023/08/11 01:04:49;;;;;;;8.10;5.22;;;;;;;12.39;91.28;96451.63;2065863;28;20050;-58
2023/08/11 01:06:28;;;;;;;8.55;5.75;;;;;;;12.40;91.00;96442.03;2057240;28;20442;-59
2023/08/11 01:07:33;;;;;;;7.18;4.88;;;;;;;12.31;90.73;96432.91;2054465;28;20062;-59
2023/08/11 01:09:03;;;;;;;7.43;5.28;;;;;;;12.27;91.36;96440.03;2052767;28;20051;-58
2023/08/11 01:10:25;;;;;;;7.97;5.55;;;;;;;12.27;92.07;96447.84;2045817;29;20055;-59
2023/08/11 01:11:43;;;;;;;8.60;6.03;;;;;;;12.23;92.56;96441.06;2056570;28;20059;-59
2023/08/11 01:12:56;;;;;;;7.63;5.30;;;;;;;12.25;92.53;96443.63;2058058;28;20058;-59
2023/08/11 01:14:03;;;;;;;7.07;5.03;;;;;;;12.13;92.32;96435.47;2057494;28;20115;-58
2023/08/11 01:15:08;;;;;;;11.52;5.72;;;;;;;12.23;92.32;96445.44;2042194;29;20099;-58
2023/08/11 01:16:09;;;;;;;8.20;5.82;;;;;;;12.27;91.28;96439.16;2050440;28;20044;-58
2023/08/11 01:17:10;;;;;;;6.97;5.30;;;;;;;12.21;92.15;96436.84;2066200;28;20054;-58
2023/08/11 01:18:12;;;;;;;6.10;5.10;;;;;;;12.16;92.18;96441.41;2057756;28;20511;-58
2023/08/11 01:19:13;;;;;;;7.63;5.38;;;;;;;12.17;92.44;96437.94;2026326;29;20053;-58
2023/08/11 01:20:16;;;;;;;10.48;5.93;;;;;;;12.20;92.23;96436.00;2034420;29;20052;-58
2023/08/11 01:21:17;;;;;;;7.85;5.60;;;;;;;12.24;91.97;96434.97;2050010;28;20084;-58
2023/08/11 01:22:19;;;;;;;11.98;5.28;;;;;;;12.25;90.95;96439.25;2049514;29;20065;-58
2023/08/11 01:23:23;;;;;;;8.30;5.55;;;;;;;12.28;90.71;96438.25;2050198;28;20047;-58
2023/08/11 01:24:25;;;;;;;8.52;5.90;;;;;;;12.29;90.65;96437.34;2057503;28;20055;-58
2023/08/11 01:25:27;;;;;;;10.05;5.82;;;;;;;12.24;90.40;96427.16;2042006;29;20055;-58
2023/08/11 01:26:28;;;;;;;7.90;5.97;;;;;;;12.24;90.45;96426.28;2042078;29;20051;-59
2023/08/11 01:27:30;;;;;;;9.77;5.40;;;;;;;12.26;90.99;96438.31;2042029;28;20056;-59
2023/08/11 01:28:33;;;;;;;9.40;5.68;;;;;;;12.29;91.14;96443.38;2057630;28;20105;-58
2023/08/11 01:29:34;;;;;;;9.80;5.82;;;;;;;12.27;91.24;96437.41;2066287;28;20081;-58
2023/08/11 01:30:36;;;;;;;8.18;5.40;;;;;;;12.23;91.49;96435.03;2066093;28;20054;-59
2023/08/11 01:31:37;;;;;;;9.25;5.97;;;;;;;12.18;91.07;96443.03;2065751;28;20054;-59
2023/08/11 01:32:38;;;;;;;11.43;5.47;;;;;;;12.13;90.97;96445.88;2066055;28;20424;-58
2023/08/11 01:33:39;;;;;;;10.15;6.18;;;;;;;12.10;91.71;96445.16;2066294;28;20062;-58
2023/08/11 01:34:41;;;;;;;8.07;6.78;;;;;;;12.08;91.47;96442.66;2066126;28;20058;-59
2023/08/11 01:35:42;;;;;;;12.32;6.20;;;;;;;12.06;91.03;96443.63;2057235;28;20062;-59
2023/08/11 01:36:43;;;;;;;8.80;5.60;;;;;;;12.07;91.55;96442.69;2057703;28;20062;-58
2023/08/11 01:37:45;;;;;;;7.47;5.70;;;;;;;12.07;91.32;96446.16;2065888;28;20486;-59
2023/08/11 01:38:46;;;;;;;9.90;5.47;;;;;;;12.06;90.74;96449.66;2065394;28;20057;-59
2023/08/11 01:39:48;;;;;;;9.65;5.97;;;;;;;12.05;90.85;96453.16;2057373;28;20059;-59
2023/08/11 01:40:49;;;;;;;8.82;5.90;;;;;;;12.05;91.43;96450.56;2057728;28;20109;-59
2023/08/11 01:41:50;;;;;;;7.85;5.60;;;;;;;12.03;91.78;96451.56;2065795;28;20057;-59
2023/08/11 01:42:51;;;;;;;9.27;5.72;;;;;;;11.99;91.75;96448.25;2065497;28;20069;-59
2023/08/11 01:43:52;;;;;;;10.75;6.32;;;;;;;11.94;91.67;96454.59;2057956;28;20434;-59
2023/08/11 01:44:53;;;;;;;9.55;5.50;;;;;;;11.91;92.04;96453.81;2049556;28;20055;-58
2023/08/11 01:45:54;;;;;;;7.88;5.60;;;;;;;11.89;92.08;96452.19;2057583;28;20055;-59
2023/08/11 01:46:56;;;;;;;11.85;5.80;;;;;;;11.86;92.62;96452.31;2057115;28;20407;-59
2023/08/11 01:47:57;;;;;;;9.18;6.50;;;;;;;11.85;92.07;96448.00;2049879;28;20052;-59
2023/08/11 01:48:58;;;;;;;11.05;6.07;;;;;;;11.85;93.01;96446.25;2049732;29;20051;-59
2023/08/11 01:49:59;;;;;;;7.75;6.05;;;;;;;11.87;92.71;96448.81;2057336;28;20061;-59
2023/08/11 01:51:00;;;;;;;10.70;6.00;;;;;;;11.81;92.94;96439.47;2049437;28;20051;-59
2023/08/11 01:52:03;;;;;;;11.75;5.72;;;;;;;11.90;92.81;96448.69;2049369;29;20051;-59
2023/08/11 01:53:04;;;;;;;8.65;5.22;;;;;;;11.88;92.57;96450.50;2041552;29;20469;-59
2023/08/11 01:54:07;;;;;;;7.88;5.93;;;;;;;11.84;92.38;96448.91;2034062;29;20056;-59
2023/08/11 01:55:13;;;;;;;7.72;6.13;;;;;;;11.80;92.66;96448.22;2042190;28;20063;-58
2023/08/11 01:56:14;;;;;;;10.18;5.95;;;;;;;11.83;92.43;96452.44;2050187;28;20070;-59
2023/08/11 01:57:16;;;;;;;7.80;5.82;;;;;;;11.80;92.92;96439.56;2042243;29;20055;-59
2023/08/11 01:58:17;;;;;;;7.63;5.32;;;;;;;11.83;92.44;96447.22;2041398;29;20055;-58
2023/08/11 01:59:18;;;;;;;8.48;6.00;;;;;;;11.79;92.77;96451.75;2042051;29;20058;-59
2023/08/11 02:00:20;;;;;;;7.60;5.63;;;;;;;11.74;93.17;96451.09;2033545;29;20052;-59
2023/08/11 02:01:21;;;;;;;9.65;5.25;;;;;;;11.73;93.75;96449.38;2041110;28;20453;-59
2023/08/11 02:02:22;;;;;;;9.25;5.80;;;;;;;11.73;92.94;96449.38;2066217;28;20050;-59
2023/08/11 02:03:24;;;;;;;9.10;5.63;;;;;;;11.70;93.73;96450.38;2065430;28;20084;-58
2023/08/11 02:04:25;;;;;;;7.95;6.10;;;;;;;11.65;93.66;96449.75;2057517;28;20065;-59
2023/08/11 02:05:26;;;;;;;7.18;5.63;;;;;;;11.63;93.20;96454.19;2057237;28;20079;-59
2023/08/11 02:06:27;;;;;;;9.45;6.05;;;;;;;11.63;93.69;96448.13;2066133;28;20058;-59
2023/08/11 02:07:28;;;;;;;11.57;6.25;;;;;;;11.66;94.67;96448.84;2057252;28;20066;-59
2023/08/11 02:08:29;;;;;;;9.98;6.38;;;;;;;11.63;93.98;96443.78;2057470;28;20054;-59
2023/08/11 02:09:32;;;;;;;8.20;6.22;;;;;;;11.63;94.10;96450.72;2057072;28;20057;-58
2023/08/11 02:10:33;;;;;;;8.43;6.05;;;;;;;11.61;94.05;96445.59;2049551;28;20514;-59
2023/08/11 02:11:38;;;;;;;9.70;6.30;;;;;;;11.58;94.11;96440.53;2057364;28;20062;-59
2023/08/11 02:12:39;;;;;;;7.50;5.70;;;;;;;11.60;93.45;96446.50;2057381;28;20051;-59
2023/08/11 02:13:40;;;;;;;11.00;6.57;;;;;;;11.63;93.87;96448.13;2057407;28;20499;-59
2023/08/11 02:14:41;;;;;;;8.95;6.30;;;;;;;11.60;93.89;96440.44;2066088;28;20055;-58
2023/08/11 02:15:42;;;;;;;9.32;6.15;;;;;;;11.64;94.10;96450.66;2066043;28;20054;-59
2023/08/11 02:16:44;;;;;;;6.65;5.78;;;;;;;11.65;94.49;96439.34;2065678;28;20498;-59
2023/08/11 02:17:45;;;;;;;10.80;6.72;;;;;;;11.69;94.00;96446.09;2065371;28;20050;-59
2023/08/11 02:18:46;;;;;;;9.07;6.68;;;;;;;11.72;93.78;96447.72;2065692;28;20058;-59
2023/08/11 02:19:47;;;;;;;9.00;6.13;;;;;;;11.73;93.29;96440.75;2066048;28;20054;-58
2023/08/11 02:20:48;;;;;;;9.60;6.97;;;;;;;11.72;93.60;96439.91;2066138;28;20050;-59
2023/08/11 02:21:49;;;;;;;12.60;6.32;;;;;;;11.71;93.57;96438.22;2065658;28;20117;-59
2023/08/11 02:22:51;;;;;;;9.02;6.65;;;;;;;11.71;94.04;96440.81;2065698;28;20478;-59
2023/08/11 02:23:52;;;;;;;9.60;6.65;;;;;;;11.70;93.53;96447.75;2066154;28;20503;-59
2023/08/11 02:24:53;;;;;;;10.00;6.35;;;;;;;11.68;93.60;96452.22;2065964;28;20054;-59
2023/08/11 02:25:54;;;;;;;8.80;6.43;;;;;;;11.65;93.56;96454.09;2065643;28;20050;-59
2023/08/11 02:26:56;;;;;;;9.27;6.35;;;;;;;11.63;94.41;96455.94;2065991;28;20046;-59
2023/08/11 02:27:57;;;;;;;9.38;5.88;;;;;;;11.59;94.10;96452.59;2065374;28;20050;-59
2023/08/11 02:28:58;;;;;;;9.50;6.45;;;;;;;11.55;93.70;96448.47;2065629;28;20050;-59
2023/08/11 02:30:00;;;;;;;8.63;6.38;;;;;;;11.50;93.65;96453.03;2065956;28;20058;-59
2023/08/11 02:31:02;;;;;;;7.72;6.07;;;;;;;11.47;94.68;96450.56;2057265;28;20511;-59
2023/08/11 02:32:04;;;;;;;9.77;7.10;;;;;;;11.44;94.82;96453.25;2057069;28;20065;-59
2023/08/11 02:33:06;;;;;;;10.23;6.55;;;;;;;11.40;95.35;96449.13;2065878;28;20046;-59
2023/08/11 02:34:07;;;;;;;8.52;6.43;;;;;;;11.36;94.65;96455.34;2056960;28;20055;-59
2023/08/11 02:35:10;;;;;;;11.27;7.30;;;;;;;11.31;95.13;96452.13;2056629;28;20393;-59
2023/08/11 02:36:11;;;;;;;8.85;6.85;;;;;;;11.24;95.83;96447.19;2056675;28;20050;-60
2023/08/11 02:37:12;;;;;;;9.88;6.30;;;;;;;11.27;95.28;96454.84;2057306;28;20047;-59
2023/08/11 02:38:13;;;;;;;9.57;6.85;;;;;;;11.23;95.18;96453.28;2066768;28;20050;-59
2023/08/11 02:39:15;;;;;;;7.95;6.43;;;;;;;11.24;95.59;96459.34;2066367;28;20525;-59
2023/08/11 02:40:19;;;;;;;10.55;6.75;;;;;;;11.24;95.76;96459.34;2067079;28;20053;-59
2023/08/11 02:41:21;;;;;;;14.15;6.80;;;;;;;11.22;94.99;96453.34;2066612;28;20065;-60
2023/08/11 02:42:24;;;;;;;9.52;6.93;;;;;;;11.24;96.26;96456.72;2065871;28;20061;-59
2023/08/11 02:43:25;;;;;;;13.85;6.53;;;;;;;11.24;95.40;96462.78;2057279;28;20529;-59
2023/08/11 02:44:26;;;;;;;9.80;6.50;;;;;;;11.21;95.09;96455.09;2057588;28;20055;-59
2023/08/11 02:45:27;;;;;;;8.02;6.80;;;;;;;11.23;94.98;96457.66;2057455;28;20062;-59
2023/08/11 02:46:29;;;;;;;7.75;6.28;;;;;;;11.22;96.14;96456.78;2057523;28;20054;-59
2023/08/11 02:47:31;;;;;;;9.73;6.05;;;;;;;11.17;95.81;96450.97;2057403;28;20059;-59
2023/08/11 02:48:33;;;;;;;8.48;6.57;;;;;;;11.23;95.61;96460.25;2057169;28;20450;-59
2023/08/11 02:49:34;;;;;;;8.15;6.35;;;;;;;11.22;95.69;96454.19;2056831;28;20054;-59
2023/08/11 02:50:35;;;;;;;8.38;6.53;;;;;;;11.21;96.28;96455.09;2064515;28;20399;-59
2023/08/11 02:51:37;;;;;;;10.48;6.97;;;;;;;11.21;96.49;96449.91;2065490;28;20054;-59
2023/08/11 02:52:38;;;;;;;10.27;6.70;;;;;;;11.20;96.50;96449.97;2057301;28;20069;-58
2023/08/11 02:53:39;;;;;;;9.40;6.60;;;;;;;11.20;96.65;96452.56;2049115;29;20058;-59
2023/08/11 02:54:40;;;;;;;11.93;6.30;;;;;;;11.16;96.40;96458.81;2057158;28;20062;-59
2023/08/11 02:55:41;;;;;;;10.55;6.72;;;;;;;11.18;95.91;96457.84;2056216;28;20407;-59
2023/08/11 02:56:46;;;;;;;7.82;6.53;;;;;;;11.18;96.32;96451.81;2065774;28;20065;-59
2023/08/11 02:57:47;;;;;;;9.05;6.70;;;;;;;11.16;96.07;96446.66;2065397;28;20054;-59
2023/08/11 02:58:49;;;;;;;10.05;6.72;;;;;;;11.18;96.02;96444.84;2065865;28;20058;-59
2023/08/11 02:59:50;;;;;;;8.65;6.63;;;;;;;11.19;96.56;96443.91;2056547;28;20063;-59
2023/08/11 03:00:52;;;;;;;7.80;6.43;;;;;;;11.20;96.84;96445.63;2057255;28;20499;-59
2023/08/11 03:01:53;;;;;;;11.48;7.32;;;;;;;11.21;96.13;96442.09;2057186;28;20043;-59
2023/08/11 03:02:54;;;;;;;9.35;6.90;;;;;;;11.21;97.07;96449.91;2065291;28;20061;-59
2023/08/11 03:03:56;;;;;;;7.95;6.35;;;;;;;11.23;96.14;96448.09;2064834;28;20090;-59
2023/08/11 03:04:57;;;;;;;10.15;7.15;;;;;;;11.15;96.41;96439.78;2065120;28;20054;-59
2023/08/11 03:05:59;;;;;;;10.30;6.85;;;;;;;11.14;96.13;96440.66;2056871;28;20053;-59
2023/08/11 03:07:00;;;;;;;8.45;6.32;;;;;;;11.11;96.58;96448.59;2049130;29;20051;-59
2023/08/11 03:08:01;;;;;;;11.82;6.78;;;;;;;11.08;96.81;96446.13;2057152;28;20061;-59
2023/08/11 03:09:03;;;;;;;8.70;6.57;;;;;;;11.07;97.16;96454.84;2057023;28;20055;-59
2023/08/11 03:10:05;;;;;;;11.20;7.05;;;;;;;11.01;96.41;96447.28;2057045;28;20051;-59
2023/08/11 03:11:06;;;;;;;12.30;6.78;;;;;;;10.97;96.41;96446.59;2057132;28;20051;-59
2023/08/11 03:12:10;;;;;;;10.05;7.13;;;;;;;10.95;96.92;96458.78;2057023;28;20514;-60
2023/08/11 03:13:11;;;;;;;9.60;7.82;;;;;;;10.91;96.46;96452.03;2056783;28;20050;-59
2023/08/11 03:14:13;;;;;;;11.68;7.63;;;;;;;10.88;97.12;96452.19;2056570;28;20077;-59
2023/08/11 03:15:14;;;;;;;9.15;6.68;;;;;;;10.89;97.53;96453.00;2068168;28;20494;-59
2023/08/11 03:16:15;;;;;;;9.35;7.68;;;;;;;10.90;98.22;96446.91;2065233;28;20054;-59
2023/08/11 03:17:16;;;;;;;8.93;6.60;;;;;;;10.91;98.15;96452.03;2056978;28;20050;-60
2023/08/11 03:18:17;;;;;;;9.00;6.43;;;;;;;10.91;97.71;96449.44;2049099;29;20055;-59
2023/08/11 03:19:18;;;;;;;8.25;6.95;;;;;;;10.93;97.33;96455.44;2040587;29;20055;-59
2023/08/11 03:20:19;;;;;;;8.82;6.97;;;;;;;10.90;97.61;96452.94;2048540;28;20058;-59
2023/08/11 03:21:21;;;;;;;9.13;7.30;;;;;;;10.90;97.79;96452.94;2057097;28;20062;-59
2023/08/11 03:22:24;;;;;;;10.77;6.95;;;;;;;10.88;97.61;96459.09;2057159;28;20098;-59
2023/08/11 03:23:25;;;;;;;12.15;7.25;;;;;;;10.87;97.67;96454.81;2048992;29;20059;-59
2023/08/11 03:24:27;;;;;;;9.88;6.97;;;;;;;10.88;98.25;96456.50;2049373;28;20468;-59
2023/08/11 03:25:28;;;;;;;9.20;7.15;;;;;;;10.88;98.13;96459.97;2049395;28;20066;-59
2023/08/11 03:26:29;;;;;;;9.50;7.10;;;;;;;10.84;98.19;96449.75;2056074;28;20055;-59
2023/08/11 03:27:30;;;;;;;8.60;6.68;;;;;;;10.87;98.61;96449.63;2056369;28;20061;-59
2023/08/11 03:28:32;;;;;;;10.13;7.35;;;;;;;10.87;98.42;96457.44;2057006;28;20051;-59
2023/08/11 03:29:33;;;;;;;9.32;7.63;;;;;;;10.82;98.42;96452.41;2056909;28;20059;-59
2023/08/11 03:30:35;;;;;;;11.45;7.10;;;;;;;10.80;97.90;96454.25;2056887;28;20054;-59
2023/08/11 03:31:36;;;;;;;11.43;7.38;;;;;;;10.81;98.65;96458.53;2064654;28;20529;-59
2023/08/11 03:32:40;;;;;;;9.70;7.45;;;;;;;10.76;97.79;96453.50;2056852;28;20070;-59
2023/08/11 03:33:42;;;;;;;10.60;7.28;;;;;;;10.77;97.79;96457.81;2049413;28;20054;-59
2023/08/11 03:34:48;;;;;;;12.05;7.72;;;;;;;10.79;98.03;96455.97;2057492;28;20050;-59
2023/08/11 03:35:49;;;;;;;11.15;7.53;;;;;;;10.78;98.82;96456.88;2057055;28;20058;-59
2023/08/11 03:36:50;;;;;;;11.77;8.10;;;;;;;10.75;98.75;96451.81;2057054;28;20061;-59
2023/08/11 03:37:51;;;;;;;9.88;7.60;;;;;;;10.75;98.31;96457.03;2056795;28;20061;-59
2023/08/11 03:38:53;;;;;;;11.98;7.85;;;;;;;10.76;98.78;96453.50;2057054;28;20051;-59
2023/08/11 03:39:54;;;;;;;9.15;7.57;;;;;;;10.76;98.74;96450.91;2049239;28;20063;-59
2023/08/11 03:40:55;;;;;;;10.73;8.00;;;;;;;10.78;99.29;96450.84;2048806;29;20059;-59
2023/08/11 03:41:57;;;;;;;10.55;7.57;;;;;;;10.82;99.73;96452.41;2048903;28;20055;-59
2023/08/11 03:42:58;;;;;;;12.43;8.32;;;;;;;10.83;99.18;96456.72;2049170;29;20059;-59
2023/08/11 03:43:59;;;;;;;13.27;8.32;;;;;;;10.81;99.44;96445.53;2056870;28;20483;-59
2023/08/11 03:45:00;;;;;;;10.85;8.23;;;;;;;10.87;99.53;96453.06;2057028;28;20055;-59
2023/08/11 03:46:02;;;;;;;14.38;8.50;;;;;;;10.89;99.15;96466.00;2056945;28;20054;-59
2023/08/11 03:47:03;;;;;;;12.88;8.43;;;;;;;10.89;100.00;96461.66;2064645;28;20058;-59
2023/08/11 03:48:05;;;;;;;9.75;8.15;;;;;;;10.84;99.15;96450.59;2056444;28;20430;-59
2023/08/11 03:49:09;;;;;;;11.38;8.90;;;;;;;10.85;100.00;96461.81;2056992;28;20062;-59
2023/08/11 03:50:10;;;;;;;12.85;8.40;;;;;;;10.83;99.14;96464.50;2064578;28;20050;-59
2023/08/11 03:51:11;;;;;;;10.52;8.02;;;;;;;10.83;99.96;96467.09;2065465;28;20047;-58
2023/08/11 03:52:12;;;;;;;11.35;8.65;;;;;;;10.80;99.77;96465.47;2065543;28;20046;-59
2023/08/11 03:53:13;;;;;;;11.40;8.38;;;;;;;10.78;99.11;96469.03;2065354;28;20058;-59
2023/08/11 03:54:15;;;;;;;9.60;7.68;;;;;;;10.76;98.81;96468.25;2065060;28;20518;-59
2023/08/11 03:55:16;;;;;;;10.85;8.32;;;;;;;10.75;99.75;96470.00;2056995;28;20567;-59
2023/08/11 03:56:18;;;;;;;10.45;8.63;;;;;;;10.75;99.56;96463.97;2056627;28;20051;-59
2023/08/11 03:57:21;;;;;;;13.25;8.52;;;;;;;10.74;99.27;96465.69;2056290;28;20550;-59
2023/08/11 03:58:23;;;;;;;10.68;8.32;;;;;;;10.73;99.23;96464.03;2056451;28;20054;-59
2023/08/11 03:59:27;;;;;;;12.02;8.10;;;;;;;10.75;99.93;96475.19;2056658;28;20530;-59
2023/08/11 04:00:28;;;;;;;11.00;8.27;;;;;;;10.78;100.00;96472.47;2048624;28;20055;-59
2023/08/11 04:01:42;;;;;;;11.45;8.25;;;;;;;10.78;99.90;96467.28;2050657;28;20059;-59
2023/08/11 04:02:44;;;;;;;11.88;8.50;;;;;;;10.78;99.44;96467.28;2056604;28;20058;-59
2023/08/11 04:03:47;;;;;;;11.15;7.68;;;;;;;10.82;100.00;96466.25;2056756;28;20054;-59
2023/08/11 04:04:48;;;;;;;10.02;7.43;;;;;;;10.85;99.60;96469.63;2057108;28;20067;-59
2023/08/11 04:05:49;;;;;;;11.57;7.68;;;;;;;10.93;99.60;96472.75;2057182;28;20067;-58
2023/08/11 04:06:52;;;;;;;12.98;8.70;;;;;;;10.96;99.75;96476.09;2056522;28;20468;-58
2023/08/11 04:07:53;;;;;;;12.95;9.55;;;;;;;10.94;99.66;96464.06;2056827;28;20063;-58
2023/08/11 04:08:54;;;;;;;11.55;9.10;;;;;;;11.01;99.86;96479.34;2056636;28;20046;-59
2023/08/11 04:09:56;;;;;;;12.88;8.93;;;;;;;11.03;98.86;96472.31;2056710;28;20487;-59
2023/08/11 04:10:57;;;;;;;12.25;9.60;;;;;;;11.03;98.91;96479.28;2056845;28;20062;-59
2023/08/11 04:11:58;;;;;;;14.07;9.68;;;;;;;10.99;98.79;96477.72;2056598;28;20054;-59
2023/08/11 04:12:59;;;;;;;10.18;8.70;;;;;;;10.98;98.75;96482.03;2065308;28;20479;-59
2023/08/11 04:14:02;;;;;;;13.57;10.15;;;;;;;10.99;98.69;96475.13;2065584;28;20042;-59
2023/08/11 04:15:05;;;;;;;15.43;9.18;;;;;;;10.96;99.23;96467.41;2065539;28;20065;-59
2023/08/11 04:16:06;;;;;;;11.48;8.52;;;;;;;11.05;99.41;96480.06;2065420;28;20050;-59
2023/08/11 04:17:07;;;;;;;10.95;8.52;;;;;;;11.10;99.38;96482.47;2056667;28;20058;-59
2023/08/11 04:18:08;;;;;;;10.52;7.45;;;;;;;11.17;98.67;96470.88;2048533;29;20430;-59
2023/08/11 04:19:11;;;;;;;10.27;8.13;;;;;;;11.22;97.84;96476.75;2057423;28;20054;-59
2023/08/11 04:20:15;;;;;;;11.68;7.60;;;;;;;11.31;97.73;96484.19;2065718;28;20418;-60
2023/08/11 04:21:17;;;;;;;9.95;6.60;;;;;;;11.42;97.08;96481.13;2056809;28;20059;-59
2023/08/11 04:22:18;;;;;;;7.93;6.30;;;;;;;11.50;95.44;96479.03;2056780;28;20062;-60
2023/08/11 04:23:19;;;;;;;9.68;6.22;;;;;;;11.56;95.34;96481.34;2056556;28;20059;-60
2023/08/11 04:24:21;;;;;;;9.52;6.57;;;;;;;11.63;95.04;96474.97;2056255;28;20055;-58
2023/08/11 04:25:22;;;;;;;9.48;5.97;;;;;;;11.66;94.32;96487.00;2056487;28;20055;-59
2023/08/11 04:26:24;;;;;;;8.68;5.68;;;;;;;11.69;93.54;96472.09;2056694;28;20058;-59
2023/08/11 04:27:25;;;;;;;7.32;5.75;;;;;;;11.79;93.41;96471.72;2056800;28;20066;-59
2023/08/11 04:28:26;;;;;;;9.20;6.28;;;;;;;11.79;93.25;96471.72;2056916;28;20058;-59
2023/08/11 04:29:27;;;;;;;8.63;6.32;;;;;;;11.80;92.89;96470.78;2057051;28;20062;-59
2023/08/11 04:30:29;;;;;;;7.85;5.50;;;;;;;11.90;92.48;96472.09;2064451;28;20058;-59
2023/08/11 04:31:31;;;;;;;8.50;5.70;;;;;;;11.85;92.44;96467.06;2056779;28;20051;-59
2023/08/11 04:32:32;;;;;;;7.85;6.03;;;;;;;12.02;91.15;96470.69;2056744;28;20077;-59
2023/08/11 04:33:34;;;;;;;8.50;5.65;;;;;;;12.12;91.08;96470.22;2064286;28;20053;-59
2023/08/11 04:34:35;;;;;;;8.45;5.43;;;;;;;12.25;90.40;96478.31;2056149;28;20537;-60
2023/08/11 04:35:38;;;;;;;8.85;5.78;;;;;;;12.51;89.81;96479.69;2049007;28;20047;-60
2023/08/11 04:36:40;;;;;;;10.95;5.85;;;;;;;12.66;88.93;96472.06;2056692;28;20059;-59
2023/08/11 04:37:41;;;;;;;7.53;5.25;;;;;;;12.96;88.34;96477.53;2064336;28;20108;-59
2023/08/11 04:38:42;;;;;;;8.45;4.95;;;;;;;13.18;87.23;96474.75;2057896;28;20055;-60
2023/08/11 04:39:44;;;;;;;6.35;5.13;;;;;;;13.19;85.85;96472.03;2058257;28;20058;-59
2023/08/11 04:40:52;;;;;;;7.55;4.93;;;;;;;13.27;86.29;96476.06;2057857;28;20050;-59
2023/08/11 04:41:53;;;;;;;7.15;5.35;;;;;;;13.40;85.53;96471.94;2058983;28;20073;-59
2023/08/11 04:42:54;;;;;;;6.30;4.75;;;;;;;13.51;84.41;96479.22;2066554;28;20057;-60
2023/08/11 04:44:02;;;;;;;8.00;4.95;;;;;;;13.71;84.37;96476.38;2057946;28;20050;-59
2023/08/11 04:45:04;;;;;;;8.50;5.35;;;;;;;13.84;83.90;96474.00;2050228;28;20058;-60
2023/08/11 04:46:06;;;;;;;7.53;4.72;;;;;;;14.19;83.34;96472.09;2050154;28;20538;-60
2023/08/11 04:47:08;;;;;;;6.47;5.15;;;;;;;14.23;81.42;96484.09;2050098;28;20069;-60
2023/08/11 04:48:10;;;;;;;6.97;4.53;;;;;;;14.33;80.52;96485.28;2058220;28;20054;-60
2023/08/11 04:49:14;;;;;;;8.55;4.65;;;;;;;14.43;80.52;96474.31;2058205;28;20085;-60
2023/08/11 04:50:15;;;;;;;6.25;4.70;;;;;;;14.63;79.64;96481.09;2050113;29;20102;-58
2023/08/11 04:51:16;;;;;;;7.78;5.45;;;;;;;14.66;79.56;96470.47;2057544;28;20062;-60